Time;durP1;ratioP1;P1;durP2;ratioP2;P2;SDS_P1;SDS_P2;PMS_P1;PMS_P2;Temp;Humidity;BMP_temperature;BMP_pressure;BME280_temperature;BME280_humidity;BME280_pressure;Samples;Min_cycle;Max_cycle;Signal;HPM_P1;HPM_P2
2023/06/01 00:00:14;;;;;;;2.78;2.55;;;21.10;54.80;;;;;;5071720;28;20182;-70
2023/06/01 00:02:40;;;;;;;3.88;2.80;;;21.10;54.80;;;;;;5072046;28;20174;-69
2023/06/01 00:05:06;;;;;;;2.92;2.47;;;21.10;54.80;;;;;;5072136;28;20174;-70
2023/06/01 00:07:32;;;;;;;2.90;2.70;;;21.10;54.80;;;;;;5071952;28;20171;-71
2023/06/01 00:09:58;;;;;;;2.90;2.67;;;21.10;54.80;;;;;;5072630;28;20193;-68
2023/06/01 00:12:24;;;;;;;3.63;2.72;;;21.10;54.80;;;;;;5072298;28;20206;-68
2023/06/01 00:14:49;;;;;;;3.38;3.08;;;21.10;54.80;;;;;;5071578;28;20162;-68
2023/06/01 00:17:15;;;;;;;2.92;2.65;;;21.10;54.80;;;;;;5072141;28;20182;-69
2023/06/01 00:19:44;;;;;;;3.60;3.30;;;21.10;54.80;;;;;;5072329;28;20171;-68
2023/06/01 00:22:10;;;;;;;4.07;2.92;;;21.00;54.80;;;;;;5071277;28;20675;-68
2023/06/01 00:24:36;;;;;;;3.83;3.00;;;21.00;54.80;;;;;;5072250;28;20175;-68
2023/06/01 00:27:02;;;;;;;2.90;2.65;;;21.10;54.80;;;;;;5072253;28;20202;-68
2023/06/01 00:29:27;;;;;;;2.75;2.55;;;21.00;54.80;;;;;;5070117;28;20575;-68
2023/06/01 00:31:53;;;;;;;3.22;2.90;;;21.00;54.80;;;;;;5072179;28;20297;-70
2023/06/01 00:34:18;;;;;;;3.65;3.13;;;21.00;54.70;;;;;;5075402;28;20640;-70
2023/06/01 00:36:44;;;;;;;5.75;3.00;;;21.00;54.80;;;;;;5075329;28;20178;-70
2023/06/01 00:39:10;;;;;;;3.13;2.83;;;21.00;54.80;;;;;;5075819;28;20166;-69
2023/06/01 00:41:35;;;;;;;3.47;2.90;;;21.00;54.80;;;;;;5075345;28;20178;-69
2023/06/01 00:44:01;;;;;;;3.08;2.80;;;21.00;54.80;;;;;;5075748;28;20700;-69
2023/06/01 00:46:27;;;;;;;3.60;3.00;;;21.00;54.80;;;;;;5075561;28;20182;-69
2023/06/01 00:48:53;;;;;;;3.17;2.65;;;21.00;54.80;;;;;;5074903;28;20609;-68
2023/06/01 00:51:19;;;;;;;3.50;3.20;;;21.00;54.80;;;;;;5075410;28;20250;-68
2023/06/01 00:53:44;;;;;;;4.55;3.00;;;20.90;54.70;;;;;;5074454;28;20198;-68
2023/06/01 00:56:11;;;;;;;3.10;2.80;;;21.00;54.80;;;;;;5073491;28;20278;-68
2023/06/01 00:58:37;;;;;;;2.72;2.53;;;20.90;54.70;;;;;;5075783;28;20232;-69
2023/06/01 01:01:03;;;;;;;3.22;2.92;;;20.90;54.80;;;;;;5075530;28;20695;-70
2023/06/01 01:03:31;;;;;;;3.15;2.65;;;20.90;54.80;;;;;;5074401;28;20179;-70
2023/06/01 01:06:13;;;;;;;3.75;3.42;;;20.90;54.70;;;;;;5075296;28;20170;-69
2023/06/01 01:08:56;;;;;;;2.83;2.63;;;20.90;54.70;;;;;;5074255;28;20178;-68
2023/06/01 01:11:25;;;;;;;2.78;2.58;;;20.90;54.80;;;;;;5073094;28;20214;-68
2023/06/01 01:14:11;;;;;;;3.05;2.80;;;20.90;54.80;;;;;;5073880;28;20220;-68
2023/06/01 01:16:45;;;;;;;3.25;2.90;;;20.90;54.90;;;;;;5073471;28;20193;-68
2023/06/01 01:19:53;;;;;;;3.47;2.70;;;20.90;54.80;;;;;;5073729;28;20200;-68
2023/06/01 01:22:26;;;;;;;3.35;3.05;;;20.90;54.70;;;;;;5074600;28;20261;-68
2023/06/01 01:25:25;;;;;;;4.25;3.70;;;20.90;54.90;;;;;;5073335;28;20569;-68
2023/06/01 01:28:07;;;;;;;3.70;2.83;;;20.90;54.80;;;;;;5073805;28;20232;-68
2023/06/01 01:30:33;;;;;;;3.45;3.20;;;20.90;54.80;;;;;;5073741;28;20174;-69
2023/06/01 01:32:59;;;;;;;3.78;3.00;;;20.90;54.80;;;;;;5073105;28;20225;-71
2023/06/01 01:35:25;;;;;;;3.08;2.80;;;20.90;54.80;;;;;;5073667;28;20178;-70
2023/06/01 01:37:54;;;;;;;3.25;2.95;;;20.90;54.80;;;;;;5072823;28;20218;-68
2023/06/01 01:40:20;;;;;;;3.65;3.22;;;20.90;54.80;;;;;;5074388;28;20656;-70
2023/06/01 01:42:45;;;;;;;4.32;3.00;;;20.90;54.80;;;;;;5074648;28;20262;-69
2023/06/01 01:45:11;;;;;;;4.50;3.20;;;20.80;54.80;;;;;;5072417;28;20253;-69
2023/06/01 01:47:44;;;;;;;3.42;3.13;;;20.80;54.80;;;;;;5073693;28;20360;-69
2023/06/01 01:50:10;;;;;;;3.60;3.03;;;20.80;54.90;;;;;;5073140;28;20220;-68
2023/06/01 01:52:38;;;;;;;3.72;3.42;;;20.80;54.90;;;;;;5072719;28;20214;-68
2023/06/01 01:55:05;;;;;;;4.57;3.38;;;20.80;54.80;;;;;;5073413;28;20179;-68
2023/06/01 01:57:32;;;;;;;3.45;2.90;;;20.80;54.90;;;;;;5072946;28;20731;-68
2023/06/01 01:59:57;;;;;;;4.25;3.03;;;20.80;54.80;;;;;;5072828;28;20206;-70
2023/06/01 02:02:23;;;;;;;3.22;3.00;;;20.80;54.90;;;;;;5074151;28;20205;-69
2023/06/01 02:04:48;;;;;;;3.25;2.95;;;20.80;54.80;;;;;;5074521;28;20254;-69
2023/06/01 02:07:15;;;;;;;3.35;3.05;;;20.80;54.90;;;;;;5073388;28;20181;-69
2023/06/01 02:09:40;;;;;;;3.72;3.15;;;20.80;54.90;;;;;;5074284;28;20289;-68
2023/06/01 02:12:06;;;;;;;3.40;3.13;;;20.80;54.90;;;;;;5072447;28;20652;-68
2023/06/01 02:14:32;;;;;;;3.10;2.85;;;20.80;54.90;;;;;;5073653;28;20625;-68
2023/06/01 02:16:57;;;;;;;3.30;3.00;;;20.80;54.90;;;;;;5073970;28;20174;-69
2023/06/01 02:19:23;;;;;;;3.17;2.88;;;20.80;54.90;;;;;;5073915;28;20212;-69
2023/06/01 02:21:48;;;;;;;3.53;2.95;;;20.80;54.90;;;;;;5073138;28;20178;-69
2023/06/01 02:24:14;;;;;;;3.42;3.13;;;20.80;54.80;;;;;;5073466;28;20178;-68
2023/06/01 02:26:40;;;;;;;3.47;3.05;;;20.80;54.90;;;;;;5073754;28;20223;-68
2023/06/01 02:29:05;;;;;;;3.40;3.10;;;20.80;54.90;;;;;;5073266;28;20174;-69
2023/06/01 02:31:32;;;;;;;3.58;3.22;;;20.80;54.90;;;;;;5073507;28;20202;-69
2023/06/01 02:33:58;;;;;;;3.30;3.05;;;20.80;54.90;;;;;;5073817;28;20178;-72
2023/06/01 02:36:25;;;;;;;3.03;2.63;;;20.80;54.90;;;;;;5073142;28;20570;-71
2023/06/01 02:38:50;;;;;;;3.45;2.90;;;20.80;55.00;;;;;;5073649;28;20229;-70
2023/06/01 02:41:16;;;;;;;3.47;3.13;;;20.70;54.90;;;;;;5072304;28;20512;-69
2023/06/01 02:43:41;;;;;;;3.00;2.80;;;20.80;55.00;;;;;;5073457;28;20182;-69
2023/06/01 02:46:07;;;;;;;3.40;3.10;;;20.70;55.00;;;;;;5073234;28;20174;-69
2023/06/01 02:48:32;;;;;;;3.30;3.00;;;20.70;55.00;;;;;;5072520;28;20537;-69
2023/06/01 02:50:58;;;;;;;3.45;3.10;;;20.70;54.90;;;;;;5073462;28;20646;-69
2023/06/01 02:53:27;;;;;;;3.05;2.85;;;20.70;55.00;;;;;;5073041;28;20661;-68
2023/06/01 02:55:52;;;;;;;3.42;3.13;;;20.70;55.00;;;;;;5072044;28;20189;-68
2023/06/01 02:58:18;;;;;;;3.25;2.88;;;20.70;55.00;;;;;;5073157;28;20170;-71
2023/06/01 03:00:43;;;;;;;3.60;3.30;;;20.70;55.00;;;;;;5073113;28;20171;-70
2023/06/01 03:03:09;;;;;;;4.45;3.20;;;20.70;55.00;;;;;;5072146;28;20202;-70
2023/06/01 03:05:35;;;;;;;3.42;3.13;;;20.70;55.00;;;;;;5072974;28;20182;-70
2023/06/01 03:08:01;;;;;;;3.80;3.50;;;20.70;55.00;;;;;;5073215;28;20182;-69
2023/06/01 03:10:27;;;;;;;3.15;2.85;;;20.60;54.90;;;;;;5071919;28;20182;-68
2023/06/01 03:12:52;;;;;;;3.20;2.90;;;20.70;55.00;;;;;;5073128;28;20691;-68
2023/06/01 03:15:18;;;;;;;3.42;2.95;;;20.70;55.00;;;;;;5072821;28;20170;-68
2023/06/01 03:17:43;;;;;;;3.50;3.20;;;20.70;55.00;;;;;;5072539;28;20245;-68
2023/06/01 03:20:14;;;;;;;3.42;3.10;;;20.70;55.00;;;;;;5072567;28;20599;-68
2023/06/01 03:22:43;;;;;;;3.17;2.97;;;20.70;55.00;;;;;;5072931;28;20185;-68
2023/06/01 03:25:09;;;;;;;3.50;3.20;;;20.70;55.00;;;;;;5071841;28;20623;-68
2023/06/01 03:27:35;;;;;;;3.75;3.35;;;20.70;55.00;;;;;;5072681;28;20270;-68
2023/06/01 03:30:01;;;;;;;3.90;3.20;;;20.70;55.00;;;;;;5072923;28;20170;-69
2023/06/01 03:32:27;;;;;;;3.65;3.35;;;20.70;55.00;;;;;;5071903;28;20219;-71
2023/06/01 03:34:53;;;;;;;3.42;3.00;;;20.60;55.00;;;;;;5072678;28;20174;-72
2023/06/01 03:37:19;;;;;;;3.72;3.40;;;20.70;55.00;;;;;;5071704;28;20253;-70
2023/06/01 03:39:45;;;;;;;3.17;2.88;;;20.70;55.10;;;;;;5071509;28;20549;-70
2023/06/01 03:42:11;;;;;;;3.65;3.35;;;20.70;55.10;;;;;;5072503;28;20175;-69
2023/06/01 03:44:36;;;;;;;3.53;3.20;;;20.70;55.10;;;;;;5071925;28;20193;-69
2023/06/01 03:47:02;;;;;;;3.60;3.30;;;20.60;55.00;;;;;;5072827;28;20178;-69
2023/06/01 03:49:27;;;;;;;3.75;3.35;;;20.60;55.00;;;;;;5072342;28;20189;-69
2023/06/01 03:51:53;;;;;;;3.40;3.10;;;20.60;55.00;;;;;;5071793;28;20256;-68
2023/06/01 03:54:20;;;;;;;4.18;3.15;;;20.60;55.60;;;;;;5072242;28;20206;-68
2023/06/01 03:56:46;;;;;;;3.40;3.10;;;20.60;55.00;;;;;;5072862;28;20219;-68
2023/06/01 03:59:11;;;;;;;3.60;3.30;;;20.60;55.00;;;;;;5071649;28;20174;-69
2023/06/01 04:01:39;;;;;;;3.30;3.00;;;20.60;55.00;;;;;;5072721;28;20174;-69
2023/06/01 04:04:05;;;;;;;3.28;2.97;;;20.60;55.00;;;;;;5071679;28;20199;-70
2023/06/01 04:06:35;;;;;;;3.88;3.50;;;20.60;55.00;;;;;;5072877;28;20257;-70
2023/06/01 04:09:06;;;;;;;3.65;3.30;;;20.60;55.00;;;;;;5076431;28;20645;-68
2023/06/01 04:11:32;;;;;;;3.40;3.10;;;20.60;55.00;;;;;;5076515;28;20218;-68
2023/06/01 04:13:57;;;;;;;3.55;3.25;;;20.60;55.00;;;;;;5075589;28;20661;-68
2023/06/01 04:16:23;;;;;;;3.45;3.15;;;20.60;55.00;;;;;;5075976;28;20182;-68
2023/06/01 04:18:48;;;;;;;3.85;3.00;;;20.60;55.00;;;;;;5076359;28;20167;-68
2023/06/01 04:21:15;;;;;;;3.53;3.22;;;20.60;55.00;;;;;;5075221;28;20173;-68
2023/06/01 04:23:42;;;;;;;3.55;3.25;;;20.60;55.00;;;;;;5076425;28;20174;-68
2023/06/01 04:26:07;;;;;;;3.97;3.55;;;20.60;55.00;;;;;;5076096;28;20352;-68
2023/06/01 04:28:33;;;;;;;4.30;3.78;;;20.60;55.10;;;;;;5075692;28;20198;-69
2023/06/01 04:30:59;;;;;;;3.25;2.95;;;20.60;55.00;;;;;;5076005;28;20630;-72
2023/06/01 04:33:25;;;;;;;3.65;3.35;;;20.60;55.00;;;;;;5075809;28;20175;-71
2023/06/01 04:35:52;;;;;;;3.75;3.35;;;20.60;55.00;;;;;;5075253;28;20206;-71
2023/06/01 04:38:19;;;;;;;3.65;3.13;;;20.60;54.90;;;;;;5075267;28;20230;-70
2023/06/01 04:40:45;;;;;;;3.13;2.92;;;20.60;55.00;;;;;;5075208;28;20185;-70
2023/06/01 04:43:11;;;;;;;3.20;2.90;;;20.60;55.00;;;;;;5075671;28;20174;-69
2023/06/01 04:45:38;;;;;;;3.88;3.30;;;20.60;55.00;;;;;;5075706;28;20657;-70
2023/06/01 04:48:08;;;;;;;3.20;2.88;;;20.50;54.90;;;;;;5075076;28;20190;-69
2023/06/01 04:50:34;;;;;;;3.40;3.10;;;20.60;54.90;;;;;;5075736;28;20170;-68
2023/06/01 04:53:00;;;;;;;3.60;3.30;;;20.60;55.00;;;;;;5075838;28;20211;-68
2023/06/01 04:55:26;;;;;;;3.95;2.80;;;20.60;54.90;;;;;;5074737;28;20179;-68
2023/06/01 04:57:51;;;;;;;3.05;2.83;;;20.60;54.90;;;;;;5075699;28;20177;-69
2023/06/01 05:00:18;;;;;;;3.63;3.33;;;20.60;54.90;;;;;;5075324;28;20636;-71
2023/06/01 05:02:44;;;;;;;4.53;3.40;;;20.60;54.90;;;;;;5074784;28;20178;-69
2023/06/01 05:05:10;;;;;;;3.70;3.25;;;20.60;54.90;;;;;;5075109;28;20201;-70
2023/06/01 05:07:36;;;;;;;3.85;3.03;;;20.60;55.60;;;;;;5075564;28;20633;-69
2023/06/01 05:10:04;;;;;;;5.03;3.67;;;20.60;54.90;;;;;;5074914;28;20174;-68
2023/06/01 05:12:30;;;;;;;3.97;3.53;;;20.60;54.80;;;;;;5075023;28;20564;-68
2023/06/01 05:14:55;;;;;;;3.75;3.28;;;20.60;54.80;;;;;;5075319;28;20178;-68
2023/06/01 05:17:21;;;;;;;3.28;3.03;;;20.60;54.80;;;;;;5074147;28;20634;-69
2023/06/01 05:19:46;;;;;;;3.53;3.22;;;20.60;54.80;;;;;;5074430;28;20182;-67
2023/06/01 05:22:12;;;;;;;3.72;3.33;;;20.60;54.80;;;;;;5075022;28;20185;-69
2023/06/01 05:24:38;;;;;;;3.25;2.92;;;20.60;54.80;;;;;;5074211;28;20695;-69
2023/06/01 05:27:04;;;;;;;3.65;2.90;;;20.60;54.80;;;;;;5075116;28;20175;-68
2023/06/01 05:29:30;;;;;;;4.13;3.35;;;20.60;54.80;;;;;;5074928;28;20232;-68
2023/06/01 05:31:55;;;;;;;4.30;3.40;;;20.60;54.80;;;;;;5074156;28;20206;-71
2023/06/01 05:34:22;;;;;;;4.07;3.70;;;20.60;54.80;;;;;;5074683;28;20698;-72
2023/06/01 05:36:48;;;;;;;4.63;3.30;;;20.60;54.80;;;;;;5074765;28;20723;-70
2023/06/01 05:39:14;;;;;;;4.13;3.35;;;20.50;54.70;;;;;;5073804;28;20591;-69
2023/06/01 05:41:40;;;;;;;3.95;3.65;;;20.60;54.70;;;;;;5074949;28;20213;-69
2023/06/01 05:44:06;;;;;;;4.03;3.28;;;20.60;54.80;;;;;;5073650;28;20202;-69
2023/06/01 05:46:31;;;;;;;3.75;3.38;;;20.60;54.80;;;;;;5074724;28;20182;-70
2023/06/01 05:48:57;;;;;;;3.50;3.20;;;20.60;54.70;;;;;;5074850;28;20214;-69
2023/06/01 05:51:22;;;;;;;3.35;3.05;;;20.70;54.80;;;;;;5073635;28;20210;-68
2023/06/01 05:53:48;;;;;;;3.53;3.22;;;20.60;54.80;;;;;;5074644;28;20240;-68
2023/06/01 05:56:13;;;;;;;4.28;3.40;;;20.60;54.70;;;;;;5074249;28;20509;-69
2023/06/01 05:58:39;;;;;;;3.97;3.58;;;20.60;54.70;;;;;;5073917;28;20602;-69
2023/06/01 06:01:05;;;;;;;3.97;3.10;;;20.60;54.70;;;;;;5074496;28;20185;-70
2023/06/01 06:03:30;;;;;;;3.50;3.20;;;20.60;54.70;;;;;;5074200;28;20170;-71
2023/06/01 06:05:56;;;;;;;5.25;3.63;;;20.60;54.60;;;;;;5073826;28;20205;-69
2023/06/01 06:08:21;;;;;;;4.38;3.20;;;20.60;54.60;;;;;;5074225;28;20540;-68
2023/06/01 06:10:47;;;;;;;4.05;3.65;;;20.60;54.60;;;;;;5074300;28;20657;-68
2023/06/01 06:13:14;;;;;;;4.88;3.70;;;20.60;54.50;;;;;;5073029;28;20217;-68
2023/06/01 06:15:39;;;;;;;4.55;3.78;;;20.70;54.50;;;;;;5072815;28;20582;-69
2023/06/01 06:18:05;;;;;;;3.75;3.08;;;20.70;54.50;;;;;;5074047;28;20196;-69
2023/06/01 06:20:31;;;;;;;3.50;3.20;;;20.70;54.50;;;;;;5073514;28;20204;-69
2023/06/01 06:22:56;;;;;;;4.10;3.60;;;20.70;54.40;;;;;;5073876;28;20661;-68
2023/06/01 06:25:22;;;;;;;3.50;3.20;;;20.70;54.40;;;;;;5073730;28;20178;-69
2023/06/01 06:27:48;;;;;;;3.47;3.17;;;20.70;54.30;;;;;;5073310;28;20185;-68
2023/06/01 06:30:14;;;;;;;3.95;3.55;;;20.70;54.30;;;;;;5072510;28;20167;-71
2023/06/01 06:32:39;;;;;;;3.75;3.10;;;20.70;54.30;;;;;;5073641;28;20214;-71
2023/06/01 06:35:05;;;;;;;3.40;3.10;;;20.70;54.30;;;;;;5073272;28;20528;-70
2023/06/01 06:37:30;;;;;;;4.13;3.30;;;20.70;54.40;;;;;;5073678;28;20615;-70
2023/06/01 06:39:56;;;;;;;5.28;3.13;;;20.70;54.40;;;;;;5073522;28;20206;-69
2023/06/01 06:42:23;;;;;;;3.85;3.25;;;20.70;54.50;;;;;;5072576;28;20232;-69
2023/06/01 06:44:48;;;;;;;3.75;3.25;;;20.70;54.50;;;;;;5073503;28;20701;-69
2023/06/01 06:47:18;;;;;;;4.45;3.20;;;20.70;54.50;;;;;;5072175;28;20206;-68
2023/06/01 06:49:44;;;;;;;4.18;3.50;;;20.70;54.50;;;;;;5073463;28;20181;-69
2023/06/01 06:52:09;;;;;;;3.22;2.92;;;20.70;54.50;;;;;;5073156;28;20214;-68
2023/06/01 06:54:35;;;;;;;4.68;3.42;;;20.70;54.50;;;;;;5072615;28;20194;-63
2023/06/01 06:57:02;;;;;;;3.38;3.08;;;20.70;54.30;;;;;;5073441;28;20175;-65
2023/06/01 06:59:28;;;;;;;4.40;3.20;;;20.80;54.40;;;;;;5072990;28;20198;-65
2023/06/01 07:01:54;;;;;;;5.45;3.42;;;20.80;54.40;;;;;;5072425;28;20205;-66
2023/06/01 07:04:20;;;;;;;7.57;4.32;;;20.80;54.50;;;;;;5072925;28;20177;-66
2023/06/01 07:06:46;;;;;;;3.45;3.15;;;20.80;54.50;;;;;;5073131;28;20655;-65
2023/06/01 07:09:11;;;;;;;4.78;3.80;;;20.80;54.60;;;;;;5072115;28;20166;-65
2023/06/01 07:11:37;;;;;;;4.07;3.28;;;20.80;54.50;;;;;;5073052;28;20267;-64
2023/06/01 07:14:02;;;;;;;3.75;3.33;;;20.90;54.50;;;;;;5073241;28;20171;-64
2023/06/01 07:16:29;;;;;;;5.47;3.50;;;21.00;54.50;;;;;;5072068;28;20208;-65
2023/06/01 07:18:56;;;;;;;4.10;3.15;;;21.00;54.30;;;;;;5072952;28;20178;-64
2023/06/01 07:21:21;;;;;;;4.38;3.00;;;21.00;54.30;;;;;;5072806;28;20185;-64
2023/06/01 07:23:47;;;;;;;3.33;3.03;;;20.90;54.30;;;;;;5072413;28;20547;-64
2023/06/01 07:26:12;;;;;;;3.85;3.22;;;20.90;54.30;;;;;;5072668;28;20641;-64
2023/06/01 07:28:38;;;;;;;3.72;2.97;;;20.90;54.30;;;;;;5072869;28;20163;-64
2023/06/01 07:31:04;;;;;;;5.35;3.40;;;21.00;54.40;;;;;;5072272;28;20575;-65
2023/06/01 07:33:30;;;;;;;4.45;3.35;;;20.90;54.40;;;;;;5072623;28;20175;-66
2023/06/01 07:35:57;;;;;;;4.07;3.67;;;20.90;54.40;;;;;;5072952;28;20196;-65
2023/06/01 07:38:23;;;;;;;4.03;3.63;;;20.90;54.40;;;;;;5071930;28;20218;-70
2023/06/01 07:40:50;;;;;;;4.82;3.58;;;20.90;54.50;;;;;;5072558;28;20588;-64
2023/06/01 07:43:15;;;;;;;4.47;3.50;;;20.90;54.50;;;;;;5072299;28;20531;-64
2023/06/01 07:45:41;;;;;;;3.80;3.28;;;20.90;54.40;;;;;;5071976;28;20584;-64
2023/06/01 07:48:06;;;;;;;4.53;3.60;;;20.90;54.50;;;;;;5072461;28;20656;-64
2023/06/01 07:50:32;;;;;;;3.90;3.50;;;21.00;54.50;;;;;;5071930;28;20274;-64
2023/06/01 07:52:58;;;;;;;4.25;3.85;;;21.00;54.50;;;;;;5072485;28;20253;-63
2023/06/01 07:55:23;;;;;;;3.63;3.03;;;21.00;54.40;;;;;;5072412;28;20177;-64
2023/06/01 07:57:49;;;;;;;3.97;3.58;;;21.10;54.40;;;;;;5071909;28;21031;-64
2023/06/01 08:00:17;;;;;;;3.90;3.50;;;21.10;54.30;;;;;;5072282;28;20593;-65
2023/06/01 08:02:43;;;;;;;4.25;3.83;;;21.10;54.30;;;;;;5072440;28;20170;-66
2023/06/01 08:05:10;;;;;;;4.80;3.30;;;21.00;54.20;;;;;;5071574;28;20174;-66
2023/06/01 08:07:37;;;;;;;4.40;3.65;;;21.10;54.30;;;;;;5072739;28;20550;-65
2023/06/01 08:10:06;;;;;;;3.95;3.50;;;21.10;54.40;;;;;;5072620;28;20167;-64
2023/06/01 08:12:32;;;;;;;4.07;3.22;;;21.10;54.40;;;;;;5071676;28;20592;-63
2023/06/01 08:14:58;;;;;;;4.38;3.67;;;21.20;54.40;;;;;;5072634;28;20177;-63
2023/06/01 08:17:24;;;;;;;4.95;3.08;;;21.10;54.30;;;;;;5072324;28;20191;-63
2023/06/01 08:19:49;;;;;;;3.42;3.13;;;21.20;54.30;;;;;;5071891;28;20684;-64
2023/06/01 08:22:16;;;;;;;3.60;2.92;;;21.20;54.30;;;;;;5072181;28;20664;-64
2023/06/01 08:24:42;;;;;;;3.92;3.40;;;21.10;54.20;;;;;;5072373;28;20170;-63
2023/06/01 08:27:21;;;;;;;3.97;3.30;;;21.20;54.90;;;;;;5071233;28;20186;-64
2023/06/01 08:29:47;;;;;;;2.83;2.63;;;21.20;54.20;;;;;;5072277;28;20641;-65
2023/06/01 08:32:12;;;;;;;3.45;3.15;;;21.20;54.20;;;;;;5072067;28;20206;-66
2023/06/01 08:34:38;;;;;;;3.47;3.03;;;21.20;54.30;;;;;;5071681;28;20178;-66
2023/06/01 08:37:04;;;;;;;3.25;2.88;;;21.20;54.20;;;;;;5072311;28;20576;-67
2023/06/01 08:39:30;;;;;;;4.40;3.10;;;21.20;54.90;;;;;;5071978;28;20179;-66
2023/06/01 08:42:08;;;;;;;3.45;3.15;;;21.20;54.20;;;;;;5071525;28;20750;-65
2023/06/01 08:44:39;;;;;;;4.32;3.47;;;21.30;54.30;;;;;;5072676;28;20632;-66
2023/06/01 08:47:05;;;;;;;3.33;3.03;;;21.30;54.20;;;;;;5071450;28;20984;-66
2023/06/01 08:49:31;;;;;;;3.42;3.10;;;21.30;54.20;;;;;;5072129;28;20257;-65
2023/06/01 08:51:57;;;;;;;3.88;3.17;;;21.20;54.30;;;;;;5072144;28;20214;-64
2023/06/01 08:54:22;;;;;;;3.28;2.97;;;21.30;54.40;;;;;;5072233;28;20170;-68
2023/06/01 08:56:48;;;;;;;3.72;3.05;;;21.30;54.30;;;;;;5074777;28;20248;-65
2023/06/01 08:59:13;;;;;;;4.10;3.25;;;21.30;54.30;;;;;;5074349;28;20194;-66
2023/06/01 09:01:39;;;;;;;3.90;2.95;;;21.30;54.30;;;;;;5074927;28;20586;-66
2023/06/01 09:04:04;;;;;;;3.53;3.05;;;21.30;54.30;;;;;;5074465;28;20624;-66
2023/06/01 09:06:30;;;;;;;3.40;3.00;;;21.30;54.20;;;;;;5075254;28;20178;-64
2023/06/01 09:08:56;;;;;;;3.30;2.90;;;21.40;54.30;;;;;;5074711;28;20175;-64
2023/06/01 09:11:21;;;;;;;3.65;2.88;;;21.40;54.30;;;;;;5074926;28;20716;-64
2023/06/01 09:13:47;;;;;;;3.13;2.83;;;21.40;54.30;;;;;;5057458;28;20188;-62
2023/06/01 09:16:12;;;;;;;4.22;2.97;;;21.40;54.30;;;;;;5074557;28;20266;-63
2023/06/01 09:18:51;;;;;;;4.45;3.40;;;21.40;54.30;;;;;;5075438;28;20269;-65
2023/06/01 09:21:17;;;;;;;3.20;2.90;;;21.40;54.30;;;;;;5074851;28;20170;-65
2023/06/01 09:23:43;;;;;;;2.97;2.78;;;21.40;54.30;;;;;;5074725;28;20171;-64
2023/06/01 09:26:10;;;;;;;3.42;3.13;;;21.50;54.30;;;;;;5075047;28;20175;-62
2023/06/01 09:28:57;;;;;;;5.05;2.80;;;21.50;54.30;;;;;;5075552;28;20182;-64
2023/06/01 09:31:39;;;;;;;3.53;2.53;;;21.50;54.30;;;;;;5074636;28;20194;-64
2023/06/01 09:34:05;;;;;;;3.30;3.00;;;21.50;54.30;;;;;;5075197;28;20236;-66
2023/06/01 09:36:31;;;;;;;3.92;2.88;;;21.50;54.30;;;;;;5074116;28;20560;-67
2023/06/01 09:39:07;;;;;;;3.40;2.92;;;21.60;54.30;;;;;;5074669;28;20241;-65
2023/06/01 09:41:55;;;;;;;3.00;2.80;;;21.50;54.30;;;;;;5075055;28;20170;-65
2023/06/01 09:44:31;;;;;;;3.40;3.10;;;21.60;54.30;;;;;;5073657;28;20249;-66
2023/06/01 09:46:58;;;;;;;2.85;2.65;;;21.60;54.40;;;;;;5074998;28;20256;-65
2023/06/01 09:49:43;;;;;;;3.38;3.08;;;21.60;54.40;;;;;;5074501;28;20228;-66
2023/06/01 09:52:12;;;;;;;3.25;2.95;;;21.60;54.40;;;;;;5073430;28;20206;-65
2023/06/01 09:54:40;;;;;;;3.13;2.63;;;21.60;54.30;;;;;;5074740;28;20182;-65
2023/06/01 09:57:06;;;;;;;2.92;2.70;;;21.60;54.30;;;;;;5073863;28;20652;-65
2023/06/01 09:59:45;;;;;;;4.13;3.00;;;21.70;54.40;;;;;;5074643;28;20170;-66
2023/06/01 10:02:15;;;;;;;3.75;2.92;;;21.60;54.40;;;;;;5074195;28;20178;-66
2023/06/01 10:04:49;;;;;;;2.80;2.60;;;21.70;54.40;;;;;;5073616;28;20174;-66
2023/06/01 10:07:14;;;;;;;3.75;2.80;;;21.70;54.40;;;;;;5074061;28;20174;-65
2023/06/01 10:09:41;;;;;;;3.00;2.70;;;21.70;54.40;;;;;;5056725;28;20675;-65
2023/06/01 10:12:08;;;;;;;3.20;2.75;;;21.70;54.40;;;;;;5073403;28;20217;-64
2023/06/01 10:14:33;;;;;;;2.75;2.38;;;21.70;54.40;;;;;;5074195;28;20535;-64
2023/06/01 10:16:59;;;;;;;3.53;3.22;;;21.70;54.40;;;;;;5074027;28;20186;-65
2023/06/01 10:19:25;;;;;;;2.80;2.60;;;21.70;54.40;;;;;;5072000;28;20250;-64
2023/06/01 10:21:50;;;;;;;3.08;2.72;;;21.80;54.50;;;;;;5074015;28;20261;-65
2023/06/01 10:24:19;;;;;;;3.92;3.20;;;21.80;54.50;;;;;;5073878;28;20170;-64
2023/06/01 10:26:58;;;;;;;2.97;2.75;;;21.80;54.50;;;;;;5073460;28;20596;-65
2023/06/01 10:29:24;;;;;;;2.70;2.50;;;21.80;54.50;;;;;;5073633;28;20219;-65
2023/06/01 10:31:51;;;;;;;3.22;2.58;;;21.80;55.10;;;;;;5072600;28;20202;-66
2023/06/01 10:34:17;;;;;;;2.95;2.65;;;21.80;54.50;;;;;;5072711;28;20180;-66
2023/06/01 10:36:51;;;;;;;3.70;2.42;;;21.80;54.50;;;;;;5055344;28;20171;-65
2023/06/01 10:39:27;;;;;;;2.50;2.30;;;21.90;54.50;;;;;;5071692;28;20641;-66
2023/06/01 10:41:55;;;;;;;4.97;3.00;;;21.90;54.50;;;;;;5073395;28;20558;-65
2023/06/01 10:44:39;;;;;;;2.83;2.45;;;21.90;55.20;;;;;;5073002;28;20178;-66
2023/06/01 10:47:05;;;;;;;3.47;2.85;;;21.90;54.50;;;;;;5072408;28;20546;-66
2023/06/01 10:49:49;;;;;;;3.65;2.70;;;21.90;54.50;;;;;;5073315;28;20178;-66
2023/06/01 10:52:30;;;;;;;3.30;2.90;;;21.80;54.50;;;;;;5072953;28;20236;-65
2023/06/01 10:55:11;;;;;;;3.22;2.90;;;21.80;54.50;;;;;;5072625;28;20171;-65
2023/06/01 10:57:44;;;;;;;3.15;2.72;;;21.90;54.50;;;;;;5073393;28;20181;-66
2023/06/01 11:00:22;;;;;;;4.85;2.90;;;21.90;54.50;;;;;;5073058;28;20183;-66
2023/06/01 11:02:59;;;;;;;7.57;4.20;;;21.90;54.40;;;;;;5072995;28;20174;-69
2023/06/01 11:05:37;;;;;;;5.75;3.72;;;21.90;54.30;;;;;;5071803;28;20186;-69
2023/06/01 11:08:07;;;;;;;5.53;4.10;;;21.90;54.30;;;;;;5072661;28;20206;-68
2023/06/01 11:10:51;;;;;;;7.10;4.15;;;22.00;54.40;;;;;;5073280;28;20179;-68
2023/06/01 11:13:31;;;;;;;6.90;4.28;;;22.00;54.40;;;;;;5072787;28;20210;-68
2023/06/01 11:16:18;;;;;;;7.40;4.45;;;22.00;54.40;;;;;;5071699;28;20274;-69
2023/06/01 11:18:57;;;;;;;8.23;4.03;;;22.00;54.40;;;;;;5073203;28;20210;-69
2023/06/01 11:21:24;;;;;;;4.45;3.75;;;22.00;54.40;;;;;;5072833;28;20249;-69
2023/06/01 11:23:50;;;;;;;6.82;4.40;;;22.00;54.50;;;;;;5072263;28;20186;-68
2023/06/01 11:26:17;;;;;;;5.90;4.05;;;22.00;54.50;;;;;;5072553;28;20209;-68
2023/06/01 11:28:43;;;;;;;5.95;4.00;;;22.10;54.60;;;;;;5072061;28;20687;-66
2023/06/01 11:31:10;;;;;;;8.00;4.72;;;22.10;54.60;;;;;;5072628;28;20179;-66
2023/06/01 11:33:37;;;;;;;7.97;4.75;;;22.10;54.60;;;;;;5072874;28;20274;-68
2023/06/01 11:36:05;;;;;;;6.95;4.65;;;22.10;54.50;;;;;;5071906;28;20170;-73
2023/06/01 11:38:39;;;;;;;8.85;5.05;;;22.10;54.50;;;;;;5072098;28;20230;-72
2023/06/01 11:41:04;;;;;;;8.43;5.38;;;22.10;54.60;;;;;;5071538;28;20265;-70
2023/06/01 11:43:30;;;;;;;6.38;5.40;;;22.10;54.50;;;;;;5071569;28;20583;-71
2023/06/01 11:46:03;;;;;;;6.13;4.80;;;22.10;54.50;;;;;;5072725;28;20182;-70
2023/06/01 11:48:29;;;;;;;8.93;5.80;;;22.10;54.40;;;;;;5072478;28;20198;-71
2023/06/01 11:50:55;;;;;;;8.32;4.95;;;22.10;54.40;;;;;;5072068;28;20645;-70
2023/06/01 11:53:21;;;;;;;6.25;5.10;;;22.10;54.40;;;;;;5072281;28;20547;-68
2023/06/01 11:55:53;;;;;;;7.93;4.90;;;22.10;54.30;;;;;;5072592;28;20641;-68
2023/06/01 11:58:22;;;;;;;9.00;5.22;;;22.10;54.30;;;;;;5071608;28;20182;-69
2023/06/01 12:00:47;;;;;;;6.88;4.72;;;22.20;54.30;;;;;;5072723;28;20170;-71
2023/06/01 12:03:13;;;;;;;8.65;5.38;;;22.20;54.30;;;;;;5071960;28;20178;-71
2023/06/01 12:05:43;;;;;;;7.65;4.85;;;22.20;54.30;;;;;;5071899;28;20293;-69
2023/06/01 12:08:08;;;;;;;9.60;5.13;;;22.20;54.30;;;;;;5072122;28;20232;-68
2023/06/01 12:10:34;;;;;;;8.82;4.70;;;22.20;54.20;;;;;;5071181;28;20178;-68
2023/06/01 12:12:59;;;;;;;7.22;4.68;;;22.30;54.10;;;;;;5070427;28;20688;-68
2023/06/01 12:15:25;;;;;;;6.03;5.10;;;22.30;54.00;;;;;;5072089;28;20181;-68
2023/06/01 12:17:52;;;;;;;8.20;5.53;;;22.30;54.00;;;;;;5053940;28;20181;-68
2023/06/01 12:20:31;;;;;;;5.50;4.93;;;22.40;53.90;;;;;;5072146;28;20181;-67
2023/06/01 12:23:00;;;;;;;5.28;4.68;;;22.40;53.90;;;;;;5072604;28;20257;-67
2023/06/01 12:25:26;;;;;;;6.78;4.75;;;22.40;53.90;;;;;;5071112;28;20582;-68
2023/06/01 12:28:08;;;;;;;6.05;4.78;;;22.40;53.90;;;;;;5073872;28;20185;-68
2023/06/01 12:30:33;;;;;;;7.38;4.95;;;22.40;53.80;;;;;;5076183;28;20698;-69
2023/06/01 12:32:59;;;;;;;7.43;4.72;;;22.50;53.90;;;;;;5075221;28;20202;-69
2023/06/01 12:35:25;;;;;;;6.57;4.40;;;22.50;53.80;;;;;;5075894;28;20221;-71
2023/06/01 12:38:09;;;;;;;6.65;5.03;;;22.50;53.70;;;;;;5074426;28;20262;-71
2023/06/01 12:40:35;;;;;;;6.25;4.70;;;22.60;53.80;;;;;;5075592;28;20182;-70
2023/06/01 12:43:00;;;;;;;6.90;4.22;;;22.60;53.70;;;;;;5075900;28;20637;-68
2023/06/01 12:45:36;;;;;;;5.20;4.47;;;22.60;53.70;;;;;;5075560;28;20178;-69
2023/06/01 12:48:01;;;;;;;8.20;4.88;;;22.60;53.60;;;;;;5075133;28;20659;-69
2023/06/01 12:50:27;;;;;;;5.97;4.65;;;22.70;53.60;;;;;;5075464;28;20182;-67